sensor_id;sensor_type;location;lat;lon;timestamp;temperature;humidity
30678;DHT22;17437;47.188;8.896;2022-10-26T00:00:28;13.00;99.90
30678;DHT22;17437;47.188;8.896;2022-10-26T00:02:59;13.00;99.90
30678;DHT22;17437;47.188;8.896;2022-10-26T00:05:33;13.00;99.90
30678;DHT22;17437;47.188;8.896;2022-10-26T00:08:05;13.00;99.90
30678;DHT22;17437;47.188;8.896;2022-10-26T00:10:37;13.00;99.90
30678;DHT22;17437;47.188;8.896;2022-10-26T00:13:11;12.90;99.90
30678;DHT22;17437;47.188;8.896;2022-10-26T00:15:42;12.90;99.90
30678;DHT22;17437;47.188;8.896;2022-10-26T00:18:14;12.90;99.90
30678;DHT22;17437;47.188;8.896;2022-10-26T00:20:45;12.90;99.90
30678;DHT22;17437;47.188;8.896;2022-10-26T00:23:17;12.90;99.90
30678;DHT22;17437;47.188;8.896;2022-10-26T00:25:54;12.90;99.90
30678;DHT22;17437;47.188;8.896;2022-10-26T00:28:26;12.90;99.90
30678;DHT22;17437;47.188;8.896;2022-10-26T00:31:00;12.90;99.90
30678;DHT22;17437;47.188;8.896;2022-10-26T00:33:33;12.80;99.90
30678;DHT22;17437;47.188;8.896;2022-10-26T00:36:05;12.80;99.90
30678;DHT22;17437;47.188;8.896;2022-10-26T00:38:39;12.70;99.90
30678;DHT22;17437;47.188;8.896;2022-10-26T00:41:15;12.70;99.90
30678;DHT22;17437;47.188;8.896;2022-10-26T00:43:46;12.70;99.90
30678;DHT22;17437;47.188;8.896;2022-10-26T00:46:21;12.80;99.90
30678;DHT22;17437;47.188;8.896;2022-10-26T00:48:54;12.80;99.90
30678;DHT22;17437;47.188;8.896;2022-10-26T00:51:30;12.80;99.90
30678;DHT22;17437;47.188;8.896;2022-10-26T00:54:04;12.80;99.90
30678;DHT22;17437;47.188;8.896;2022-10-26T00:56:36;12.80;99.90
30678;DHT22;17437;47.188;8.896;2022-10-26T00:59:10;12.70;99.90
30678;DHT22;17437;47.188;8.896;2022-10-26T01:01:43;12.70;99.90
30678;DHT22;17437;47.188;8.896;2022-10-26T01:04:16;12.70;99.90
30678;DHT22;17437;47.188;8.896;2022-10-26T01:06:48;12.70;99.90
30678;DHT22;17437;47.188;8.896;2022-10-26T01:09:20;12.70;99.90
30678;DHT22;17437;47.188;8.896;2022-10-26T01:11:52;12.60;99.90
30678;DHT22;17437;47.188;8.896;2022-10-26T01:14:24;12.50;99.90
30678;DHT22;17437;47.188;8.896;2022-10-26T01:17:01;12.30;99.90
30678;DHT22;17437;47.188;8.896;2022-10-26T01:22:46;12.10;99.90
30678;DHT22;17437;47.188;8.896;2022-10-26T01:25:31;12.00;99.90
30678;DHT22;17437;47.188;8.896;2022-10-26T01:28:04;11.90;99.90
30678;DHT22;17437;47.188;8.896;2022-10-26T01:30:39;11.80;99.90
30678;DHT22;17437;47.188;8.896;2022-10-26T01:33:21;11.90;99.90
30678;DHT22;17437;47.188;8.896;2022-10-26T01:36:00;12.00;99.90
30678;DHT22;17437;47.188;8.896;2022-10-26T01:38:36;12.00;99.90
30678;DHT22;17437;47.188;8.896;2022-10-26T01:41:11;11.90;99.90
30678;DHT22;17437;47.188;8.896;2022-10-26T01:43:44;12.00;99.90
30678;DHT22;17437;47.188;8.896;2022-10-26T01:46:17;12.20;99.90
30678;DHT22;17437;47.188;8.896;2022-10-26T01:48:51;12.40;99.90
30678;DHT22;17437;47.188;8.896;2022-10-26T01:51:24;12.40;99.90
30678;DHT22;17437;47.188;8.896;2022-10-26T01:53:57;12.50;99.90
30678;DHT22;17437;47.188;8.896;2022-10-26T01:56:30;12.50;99.90
30678;DHT22;17437;47.188;8.896;2022-10-26T01:59:23;12.60;99.90
30678;DHT22;17437;47.188;8.896;2022-10-26T02:05:49;12.70;99.90
30678;DHT22;17437;47.188;8.896;2022-10-26T02:08:26;13.10;99.90
30678;DHT22;17437;47.188;8.896;2022-10-26T02:11:07;13.40;99.90
30678;DHT22;17437;47.188;8.896;2022-10-26T02:13:44;13.60;99.90
30678;DHT22;17437;47.188;8.896;2022-10-26T02:16:19;13.60;99.90
30678;DHT22;17437;47.188;8.896;2022-10-26T02:18:56;13.70;99.90
30678;DHT22;17437;47.188;8.896;2022-10-26T02:21:35;13.90;99.90
30678;DHT22;17437;47.188;8.896;2022-10-26T02:24:04;13.90;99.90
30678;DHT22;17437;47.188;8.896;2022-10-26T02:26:39;13.90;99.90
30678;DHT22;17437;47.188;8.896;2022-10-26T02:29:14;13.90;99.90
30678;DHT22;17437;47.188;8.896;2022-10-26T02:31:46;13.90;99.90
30678;DHT22;17437;47.188;8.896;2022-10-26T02:34:21;13.90;99.90
30678;DHT22;17437;47.188;8.896;2022-10-26T02:36:54;13.80;99.90
30678;DHT22;17437;47.188;8.896;2022-10-26T02:39:29;13.80;99.90
30678;DHT22;17437;47.188;8.896;2022-10-26T02:42:04;13.80;99.90
30678;DHT22;17437;47.188;8.896;2022-10-26T02:44:40;13.90;99.90
30678;DHT22;17437;47.188;8.896;2022-10-26T02:47:13;13.90;99.90
30678;DHT22;17437;47.188;8.896;2022-10-26T02:49:44;13.80;99.90
30678;DHT22;17437;47.188;8.896;2022-10-26T02:52:20;13.80;99.90
30678;DHT22;17437;47.188;8.896;2022-10-26T02:54:52;13.70;99.90
30678;DHT22;17437;47.188;8.896;2022-10-26T02:57:28;13.70;99.90
30678;DHT22;17437;47.188;8.896;2022-10-26T03:00:00;13.60;99.90
30678;DHT22;17437;47.188;8.896;2022-10-26T03:02:32;13.60;99.90
30678;DHT22;17437;47.188;8.896;2022-10-26T03:05:09;13.50;99.90
30678;DHT22;17437;47.188;8.896;2022-10-26T03:07:41;13.50;99.90
30678;DHT22;17437;47.188;8.896;2022-10-26T03:10:13;13.50;99.90
30678;DHT22;17437;47.188;8.896;2022-10-26T03:12:44;13.40;99.90
30678;DHT22;17437;47.188;8.896;2022-10-26T03:15:16;13.40;99.90
30678;DHT22;17437;47.188;8.896;2022-10-26T03:17:48;13.30;99.90
30678;DHT22;17437;47.188;8.896;2022-10-26T03:20:19;13.30;99.90
30678;DHT22;17437;47.188;8.896;2022-10-26T03:22:50;13.30;99.90
30678;DHT22;17437;47.188;8.896;2022-10-26T03:25:22;13.30;99.90
30678;DHT22;17437;47.188;8.896;2022-10-26T03:27:57;13.20;99.90
30678;DHT22;17437;47.188;8.896;2022-10-26T03:30:29;13.20;99.90
30678;DHT22;17437;47.188;8.896;2022-10-26T03:33:01;13.20;99.90
30678;DHT22;17437;47.188;8.896;2022-10-26T03:35:32;13.20;99.90
30678;DHT22;17437;47.188;8.896;2022-10-26T03:38:05;13.10;99.90
30678;DHT22;17437;47.188;8.896;2022-10-26T03:40:36;13.10;99.90
30678;DHT22;17437;47.188;8.896;2022-10-26T03:43:08;13.20;99.90
30678;DHT22;17437;47.188;8.896;2022-10-26T03:45:40;13.20;99.90
30678;DHT22;17437;47.188;8.896;2022-10-26T03:48:12;13.10;99.90
30678;DHT22;17437;47.188;8.896;2022-10-26T03:50:43;13.10;99.90
30678;DHT22;17437;47.188;8.896;2022-10-26T03:53:14;13.10;99.90
30678;DHT22;17437;47.188;8.896;2022-10-26T03:55:46;13.10;99.90
30678;DHT22;17437;47.188;8.896;2022-10-26T03:58:18;13.10;99.90
30678;DHT22;17437;47.188;8.896;2022-10-26T04:00:50;13.00;99.90
30678;DHT22;17437;47.188;8.896;2022-10-26T04:03:21;13.10;99.90
30678;DHT22;17437;47.188;8.896;2022-10-26T04:05:53;13.00;99.90
30678;DHT22;17437;47.188;8.896;2022-10-26T04:08:24;13.00;99.90
30678;DHT22;17437;47.188;8.896;2022-10-26T04:10:55;13.00;99.90
30678;DHT22;17437;47.188;8.896;2022-10-26T04:13:28;13.00;99.90
30678;DHT22;17437;47.188;8.896;2022-10-26T04:16:00;13.00;99.90
30678;DHT22;17437;47.188;8.896;2022-10-26T04:18:31;13.00;99.90
30678;DHT22;17437;47.188;8.896;2022-10-26T04:21:03;12.90;99.90
30678;DHT22;17437;47.188;8.896;2022-10-26T04:23:34;12.90;99.90
30678;DHT22;17437;47.188;8.896;2022-10-26T04:26:05;13.00;99.90
30678;DHT22;17437;47.188;8.896;2022-10-26T04:28:37;13.00;99.90
30678;DHT22;17437;47.188;8.896;2022-10-26T04:31:08;13.00;99.90
30678;DHT22;17437;47.188;8.896;2022-10-26T04:33:39;13.00;99.90
30678;DHT22;17437;47.188;8.896;2022-10-26T04:36:11;13.10;99.90
30678;DHT22;17437;47.188;8.896;2022-10-26T04:38:42;13.20;99.90
30678;DHT22;17437;47.188;8.896;2022-10-26T04:41:13;13.20;99.90
30678;DHT22;17437;47.188;8.896;2022-10-26T04:43:45;13.30;99.90
30678;DHT22;17437;47.188;8.896;2022-10-26T04:46:16;13.30;99.90
30678;DHT22;17437;47.188;8.896;2022-10-26T04:48:48;13.30;99.90
30678;DHT22;17437;47.188;8.896;2022-10-26T04:51:19;13.30;99.90
30678;DHT22;17437;47.188;8.896;2022-10-26T04:53:52;13.30;99.90
30678;DHT22;17437;47.188;8.896;2022-10-26T04:56:24;13.40;99.90
30678;DHT22;17437;47.188;8.896;2022-10-26T04:58:55;13.40;99.90
30678;DHT22;17437;47.188;8.896;2022-10-26T05:01:27;13.40;99.90
30678;DHT22;17437;47.188;8.896;2022-10-26T05:03:58;13.40;99.90
30678;DHT22;17437;47.188;8.896;2022-10-26T05:06:29;13.50;99.90
30678;DHT22;17437;47.188;8.896;2022-10-26T05:09:01;13.50;99.90
30678;DHT22;17437;47.188;8.896;2022-10-26T05:11:33;13.40;99.90
30678;DHT22;17437;47.188;8.896;2022-10-26T05:14:04;13.40;99.90
30678;DHT22;17437;47.188;8.896;2022-10-26T05:16:35;13.50;99.90
30678;DHT22;17437;47.188;8.896;2022-10-26T05:19:07;13.40;99.90
30678;DHT22;17437;47.188;8.896;2022-10-26T05:21:38;13.30;99.90
30678;DHT22;17437;47.188;8.896;2022-10-26T05:24:10;13.50;99.90
30678;DHT22;17437;47.188;8.896;2022-10-26T05:26:42;13.40;99.90
30678;DHT22;17437;47.188;8.896;2022-10-26T05:29:13;13.30;99.90
30678;DHT22;17437;47.188;8.896;2022-10-26T05:31:44;13.30;99.90
30678;DHT22;17437;47.188;8.896;2022-10-26T05:34:15;13.20;99.90
30678;DHT22;17437;47.188;8.896;2022-10-26T05:36:48;13.20;99.90
30678;DHT22;17437;47.188;8.896;2022-10-26T05:39:20;13.10;99.90
30678;DHT22;17437;47.188;8.896;2022-10-26T05:41:51;13.00;99.90
30678;DHT22;17437;47.188;8.896;2022-10-26T05:44:23;13.00;99.90
30678;DHT22;17437;47.188;8.896;2022-10-26T05:46:54;13.00;99.90
30678;DHT22;17437;47.188;8.896;2022-10-26T05:49:26;13.00;99.90
30678;DHT22;17437;47.188;8.896;2022-10-26T05:51:57;13.00;99.90
30678;DHT22;17437;47.188;8.896;2022-10-26T05:54:28;13.10;99.90
30678;DHT22;17437;47.188;8.896;2022-10-26T05:57:00;13.10;99.90
30678;DHT22;17437;47.188;8.896;2022-10-26T05:59:33;13.10;99.90
30678;DHT22;17437;47.188;8.896;2022-10-26T06:02:08;13.20;99.90
30678;DHT22;17437;47.188;8.896;2022-10-26T06:04:41;13.20;99.90
30678;DHT22;17437;47.188;8.896;2022-10-26T06:07:17;13.10;99.90
30678;DHT22;17437;47.188;8.896;2022-10-26T06:09:50;13.10;99.90
30678;DHT22;17437;47.188;8.896;2022-10-26T06:12:22;13.10;99.90
30678;DHT22;17437;47.188;8.896;2022-10-26T06:14:57;13.10;99.90
30678;DHT22;17437;47.188;8.896;2022-10-26T06:17:37;13.10;99.90
30678;DHT22;17437;47.188;8.896;2022-10-26T06:20:17;13.10;99.90
30678;DHT22;17437;47.188;8.896;2022-10-26T06:22:57;13.00;99.90
30678;DHT22;17437;47.188;8.896;2022-10-26T06:25:35;13.00;99.90
30678;DHT22;17437;47.188;8.896;2022-10-26T06:28:12;13.00;99.90
30678;DHT22;17437;47.188;8.896;2022-10-26T06:30:45;13.00;99.90
30678;DHT22;17437;47.188;8.896;2022-10-26T06:33:16;13.00;99.90
30678;DHT22;17437;47.188;8.896;2022-10-26T06:35:53;12.90;99.90
30678;DHT22;17437;47.188;8.896;2022-10-26T06:38:26;13.10;99.90
30678;DHT22;17437;47.188;8.896;2022-10-26T06:40:58;13.30;99.90
30678;DHT22;17437;47.188;8.896;2022-10-26T06:43:33;13.30;99.90
30678;DHT22;17437;47.188;8.896;2022-10-26T06:46:10;13.40;99.90
30678;DHT22;17437;47.188;8.896;2022-10-26T06:48:49;13.40;99.90
30678;DHT22;17437;47.188;8.896;2022-10-26T06:51:24;13.50;99.90
30678;DHT22;17437;47.188;8.896;2022-10-26T06:53:58;13.60;99.90
30678;DHT22;17437;47.188;8.896;2022-10-26T06:56:33;13.50;99.90
30678;DHT22;17437;47.188;8.896;2022-10-26T06:59:07;13.50;99.90
30678;DHT22;17437;47.188;8.896;2022-10-26T07:01:38;13.60;99.90
30678;DHT22;17437;47.188;8.896;2022-10-26T07:04:11;13.50;99.90
30678;DHT22;17437;47.188;8.896;2022-10-26T07:06:42;13.50;99.90
30678;DHT22;17437;47.188;8.896;2022-10-26T07:09:13;13.40;99.90
30678;DHT22;17437;47.188;8.896;2022-10-26T07:11:44;13.30;99.90
30678;DHT22;17437;47.188;8.896;2022-10-26T07:14:16;13.30;99.90
30678;DHT22;17437;47.188;8.896;2022-10-26T07:16:47;13.30;99.90
30678;DHT22;17437;47.188;8.896;2022-10-26T07:19:18;13.40;99.90
30678;DHT22;17437;47.188;8.896;2022-10-26T07:21:49;13.40;99.90
30678;DHT22;17437;47.188;8.896;2022-10-26T07:24:22;13.40;99.90
30678;DHT22;17437;47.188;8.896;2022-10-26T07:26:54;13.40;99.90
30678;DHT22;17437;47.188;8.896;2022-10-26T07:29:26;13.40;99.90
30678;DHT22;17437;47.188;8.896;2022-10-26T07:31:57;13.50;99.90
30678;DHT22;17437;47.188;8.896;2022-10-26T07:34:27;13.50;99.90
30678;DHT22;17437;47.188;8.896;2022-10-26T07:36:59;13.60;99.90
30678;DHT22;17437;47.188;8.896;2022-10-26T07:39:31;13.50;99.90
30678;DHT22;17437;47.188;8.896;2022-10-26T07:42:02;13.60;99.90
30678;DHT22;17437;47.188;8.896;2022-10-26T07:44:33;13.60;99.90
30678;DHT22;17437;47.188;8.896;2022-10-26T07:47:05;13.60;99.90
30678;DHT22;17437;47.188;8.896;2022-10-26T07:49:36;13.60;99.90
30678;DHT22;17437;47.188;8.896;2022-10-26T07:52:08;13.60;99.90
30678;DHT22;17437;47.188;8.896;2022-10-26T07:54:39;13.60;99.90
30678;DHT22;17437;47.188;8.896;2022-10-26T07:57:11;13.60;99.90
30678;DHT22;17437;47.188;8.896;2022-10-26T07:59:42;13.70;99.90
30678;DHT22;17437;47.188;8.896;2022-10-26T08:02:13;13.70;99.90
30678;DHT22;17437;47.188;8.896;2022-10-26T08:04:44;13.80;99.90
30678;DHT22;17437;47.188;8.896;2022-10-26T08:07:17;13.90;99.90
30678;DHT22;17437;47.188;8.896;2022-10-26T08:09:48;14.00;99.90
30678;DHT22;17437;47.188;8.896;2022-10-26T08:12:20;14.10;99.90
30678;DHT22;17437;47.188;8.896;2022-10-26T08:14:51;14.20;99.90
30678;DHT22;17437;47.188;8.896;2022-10-26T08:17:22;14.20;99.90
30678;DHT22;17437;47.188;8.896;2022-10-26T08:19:54;14.30;99.90
30678;DHT22;17437;47.188;8.896;2022-10-26T08:22:26;14.30;99.90
30678;DHT22;17437;47.188;8.896;2022-10-26T08:24:58;14.50;99.90
30678;DHT22;17437;47.188;8.896;2022-10-26T08:27:30;14.70;99.90
30678;DHT22;17437;47.188;8.896;2022-10-26T08:30:01;14.80;99.90
30678;DHT22;17437;47.188;8.896;2022-10-26T08:32:32;14.90;99.90
30678;DHT22;17437;47.188;8.896;2022-10-26T08:35:06;15.00;99.90
30678;DHT22;17437;47.188;8.896;2022-10-26T08:37:37;15.10;99.90
30678;DHT22;17437;47.188;8.896;2022-10-26T08:40:14;15.20;99.90
30678;DHT22;17437;47.188;8.896;2022-10-26T08:42:47;15.30;99.90
30678;DHT22;17437;47.188;8.896;2022-10-26T08:45:24;15.40;99.90
30678;DHT22;17437;47.188;8.896;2022-10-26T08:48:00;15.60;99.90
30678;DHT22;17437;47.188;8.896;2022-10-26T08:50:36;15.60;99.90
30678;DHT22;17437;47.188;8.896;2022-10-26T08:53:13;15.60;99.90
30678;DHT22;17437;47.188;8.896;2022-10-26T08:55:47;15.70;99.90
30678;DHT22;17437;47.188;8.896;2022-10-26T08:58:24;15.70;99.90
30678;DHT22;17437;47.188;8.896;2022-10-26T09:00:58;15.80;99.90
30678;DHT22;17437;47.188;8.896;2022-10-26T09:03:31;15.90;99.90
30678;DHT22;17437;47.188;8.896;2022-10-26T09:06:10;15.90;99.90
30678;DHT22;17437;47.188;8.896;2022-10-26T09:08:48;15.90;99.90
30678;DHT22;17437;47.188;8.896;2022-10-26T09:11:25;15.90;99.90
30678;DHT22;17437;47.188;8.896;2022-10-26T09:16:44;16.00;99.90
30678;DHT22;17437;47.188;8.896;2022-10-26T09:22:30;16.20;99.90
30678;DHT22;17437;47.188;8.896;2022-10-26T09:25:09;16.20;99.90
30678;DHT22;17437;47.188;8.896;2022-10-26T09:27:40;16.40;99.90
30678;DHT22;17437;47.188;8.896;2022-10-26T09:30:15;16.40;99.90
30678;DHT22;17437;47.188;8.896;2022-10-26T09:32:48;16.50;99.90
30678;DHT22;17437;47.188;8.896;2022-10-26T09:35:23;16.50;99.90
30678;DHT22;17437;47.188;8.896;2022-10-26T09:37:57;16.60;99.90
30678;DHT22;17437;47.188;8.896;2022-10-26T09:40:33;16.60;99.90
30678;DHT22;17437;47.188;8.896;2022-10-26T09:43:09;16.70;99.90
30678;DHT22;17437;47.188;8.896;2022-10-26T09:45:43;16.80;99.90
30678;DHT22;17437;47.188;8.896;2022-10-26T09:48:19;16.90;99.90
30678;DHT22;17437;47.188;8.896;2022-10-26T09:50:51;17.00;99.90
30678;DHT22;17437;47.188;8.896;2022-10-26T09:53:22;17.10;99.90
30678;DHT22;17437;47.188;8.896;2022-10-26T09:55:59;17.10;99.90
30678;DHT22;17437;47.188;8.896;2022-10-26T09:58:34;17.10;99.90
30678;DHT22;17437;47.188;8.896;2022-10-26T10:01:06;17.20;99.90
30678;DHT22;17437;47.188;8.896;2022-10-26T10:03:37;17.30;99.90
30678;DHT22;17437;47.188;8.896;2022-10-26T10:06:17;17.40;99.90
30678;DHT22;17437;47.188;8.896;2022-10-26T10:09:03;17.50;99.90
30678;DHT22;17437;47.188;8.896;2022-10-26T10:11:40;17.60;99.90
30678;DHT22;17437;47.188;8.896;2022-10-26T10:14:15;17.60;99.90
30678;DHT22;17437;47.188;8.896;2022-10-26T10:16:52;17.80;99.90
30678;DHT22;17437;47.188;8.896;2022-10-26T10:19:26;17.80;99.90
30678;DHT22;17437;47.188;8.896;2022-10-26T10:21:59;17.80;99.90
30678;DHT22;17437;47.188;8.896;2022-10-26T10:24:32;17.90;99.90
30678;DHT22;17437;47.188;8.896;2022-10-26T10:27:07;17.90;99.90
30678;DHT22;17437;47.188;8.896;2022-10-26T10:29:41;18.10;99.90
30678;DHT22;17437;47.188;8.896;2022-10-26T10:32:16;18.10;99.90
30678;DHT22;17437;47.188;8.896;2022-10-26T10:34:50;18.20;99.90
30678;DHT22;17437;47.188;8.896;2022-10-26T10:37:25;18.40;99.90
30678;DHT22;17437;47.188;8.896;2022-10-26T10:39:59;18.50;99.90
30678;DHT22;17437;47.188;8.896;2022-10-26T10:42:33;18.40;99.90
30678;DHT22;17437;47.188;8.896;2022-10-26T10:45:07;18.20;99.90
30678;DHT22;17437;47.188;8.896;2022-10-26T10:47:39;18.00;99.90
30678;DHT22;17437;47.188;8.896;2022-10-26T10:50:17;18.00;99.90
30678;DHT22;17437;47.188;8.896;2022-10-26T10:52:49;17.90;99.90
30678;DHT22;17437;47.188;8.896;2022-10-26T10:55:22;17.80;99.90
30678;DHT22;17437;47.188;8.896;2022-10-26T10:58:00;17.80;99.90
30678;DHT22;17437;47.188;8.896;2022-10-26T11:00:35;17.80;99.90
30678;DHT22;17437;47.188;8.896;2022-10-26T11:03:26;17.80;99.90
30678;DHT22;17437;47.188;8.896;2022-10-26T11:05:58;17.80;99.90
30678;DHT22;17437;47.188;8.896;2022-10-26T11:08:34;17.80;99.90
30678;DHT22;17437;47.188;8.896;2022-10-26T11:11:08;17.80;99.90
30678;DHT22;17437;47.188;8.896;2022-10-26T11:13:44;17.80;99.90
30678;DHT22;17437;47.188;8.896;2022-10-26T11:16:19;17.90;99.90
30678;DHT22;17437;47.188;8.896;2022-10-26T11:18:54;18.10;99.90
30678;DHT22;17437;47.188;8.896;2022-10-26T11:21:28;18.10;99.90
30678;DHT22;17437;47.188;8.896;2022-10-26T11:24:05;18.00;99.90
30678;DHT22;17437;47.188;8.896;2022-10-26T11:26:44;18.00;99.90
30678;DHT22;17437;47.188;8.896;2022-10-26T11:29:24;17.90;99.90
30678;DHT22;17437;47.188;8.896;2022-10-26T11:32:00;17.80;99.90
30678;DHT22;17437;47.188;8.896;2022-10-26T11:34:35;17.80;99.90
30678;DHT22;17437;47.188;8.896;2022-10-26T11:37:11;17.80;99.90
30678;DHT22;17437;47.188;8.896;2022-10-26T11:39:45;17.80;99.90
30678;DHT22;17437;47.188;8.896;2022-10-26T11:42:24;17.80;99.90
30678;DHT22;17437;47.188;8.896;2022-10-26T11:47:41;17.80;99.90
30678;DHT22;17437;47.188;8.896;2022-10-26T11:50:16;17.80;99.90
30678;DHT22;17437;47.188;8.896;2022-10-26T11:52:51;17.90;99.90
30678;DHT22;17437;47.188;8.896;2022-10-26T11:55:23;17.90;99.90
30678;DHT22;17437;47.188;8.896;2022-10-26T11:57:54;17.90;99.90
30678;DHT22;17437;47.188;8.896;2022-10-26T12:00:27;17.90;99.90
30678;DHT22;17437;47.188;8.896;2022-10-26T12:03:06;18.00;99.90
30678;DHT22;17437;47.188;8.896;2022-10-26T12:05:41;18.10;99.90
30678;DHT22;17437;47.188;8.896;2022-10-26T12:08:16;18.10;99.90
30678;DHT22;17437;47.188;8.896;2022-10-26T12:11:00;18.10;99.90
30678;DHT22;17437;47.188;8.896;2022-10-26T12:13:34;18.10;99.90
30678;DHT22;17437;47.188;8.896;2022-10-26T12:16:12;18.20;99.90
30678;DHT22;17437;47.188;8.896;2022-10-26T12:18:44;18.20;99.90
30678;DHT22;17437;47.188;8.896;2022-10-26T12:21:19;18.20;99.90
30678;DHT22;17437;47.188;8.896;2022-10-26T12:23:55;18.30;99.90
30678;DHT22;17437;47.188;8.896;2022-10-26T12:26:53;18.30;99.90
30678;DHT22;17437;47.188;8.896;2022-10-26T12:29:45;18.40;99.90
30678;DHT22;17437;47.188;8.896;2022-10-26T12:32:52;18.40;99.90
30678;DHT22;17437;47.188;8.896;2022-10-26T12:35:43;18.40;99.90
30678;DHT22;17437;47.188;8.896;2022-10-26T12:38:53;18.40;99.90
30678;DHT22;17437;47.188;8.896;2022-10-26T12:41:17;18.50;99.90
30678;DHT22;17437;47.188;8.896;2022-10-26T12:43:47;18.50;99.90
30678;DHT22;17437;47.188;8.896;2022-10-26T12:46:46;18.50;99.90
30678;DHT22;17437;47.188;8.896;2022-10-26T12:52:52;18.50;99.90
30678;DHT22;17437;47.188;8.896;2022-10-26T12:56:01;18.60;99.90
30678;DHT22;17437;47.188;8.896;2022-10-26T13:01:37;18.60;99.90
30678;DHT22;17437;47.188;8.896;2022-10-26T13:04:59;18.60;99.90
30678;DHT22;17437;47.188;8.896;2022-10-26T13:07:35;18.60;99.90
30678;DHT22;17437;47.188;8.896;2022-10-26T13:10:17;18.60;99.90
30678;DHT22;17437;47.188;8.896;2022-10-26T13:12:51;18.60;99.90
30678;DHT22;17437;47.188;8.896;2022-10-26T13:15:26;18.60;99.90
30678;DHT22;17437;47.188;8.896;2022-10-26T13:18:07;18.70;99.90
30678;DHT22;17437;47.188;8.896;2022-10-26T13:23:31;18.60;99.90
30678;DHT22;17437;47.188;8.896;2022-10-26T13:26:08;18.60;99.90
30678;DHT22;17437;47.188;8.896;2022-10-26T13:28:48;18.60;99.90
30678;DHT22;17437;47.188;8.896;2022-10-26T13:31:53;18.60;99.90
30678;DHT22;17437;47.188;8.896;2022-10-26T13:34:28;18.60;99.90
30678;DHT22;17437;47.188;8.896;2022-10-26T13:37:06;18.60;99.90
30678;DHT22;17437;47.188;8.896;2022-10-26T13:39:39;18.70;99.90
30678;DHT22;17437;47.188;8.896;2022-10-26T13:42:14;18.60;99.90
30678;DHT22;17437;47.188;8.896;2022-10-26T13:44:51;18.70;99.90
30678;DHT22;17437;47.188;8.896;2022-10-26T13:47:26;18.70;99.90
30678;DHT22;17437;47.188;8.896;2022-10-26T13:50:02;18.70;99.90
30678;DHT22;17437;47.188;8.896;2022-10-26T13:52:35;18.70;99.90
30678;DHT22;17437;47.188;8.896;2022-10-26T13:55:12;18.70;99.90
30678;DHT22;17437;47.188;8.896;2022-10-26T13:57:48;18.70;99.90
30678;DHT22;17437;47.188;8.896;2022-10-26T14:00:21;18.70;99.90
30678;DHT22;17437;47.188;8.896;2022-10-26T14:02:53;18.70;99.90
30678;DHT22;17437;47.188;8.896;2022-10-26T14:05:24;18.70;99.90
30678;DHT22;17437;47.188;8.896;2022-10-26T14:07:57;18.70;99.90
30678;DHT22;17437;47.188;8.896;2022-10-26T14:10:31;18.70;99.90
30678;DHT22;17437;47.188;8.896;2022-10-26T14:13:06;18.60;99.90
30678;DHT22;17437;47.188;8.896;2022-10-26T14:15:41;18.60;99.90
30678;DHT22;17437;47.188;8.896;2022-10-26T14:18:16;18.60;99.90
30678;DHT22;17437;47.188;8.896;2022-10-26T14:20:51;18.60;99.90
30678;DHT22;17437;47.188;8.896;2022-10-26T14:23:26;18.60;99.90
30678;DHT22;17437;47.188;8.896;2022-10-26T14:25:58;18.60;99.90
30678;DHT22;17437;47.188;8.896;2022-10-26T14:28:42;18.60;99.90
30678;DHT22;17437;47.188;8.896;2022-10-26T14:31:17;18.60;99.90
30678;DHT22;17437;47.188;8.896;2022-10-26T14:33:47;18.50;99.90
30678;DHT22;17437;47.188;8.896;2022-10-26T14:36:21;18.50;99.90
30678;DHT22;17437;47.188;8.896;2022-10-26T14:38:57;18.40;99.90
30678;DHT22;17437;47.188;8.896;2022-10-26T14:41:29;18.40;99.90
30678;DHT22;17437;47.188;8.896;2022-10-26T14:44:00;18.40;99.90
30678;DHT22;17437;47.188;8.896;2022-10-26T14:46:34;18.40;99.90
30678;DHT22;17437;47.188;8.896;2022-10-26T14:49:05;18.40;99.90
30678;DHT22;17437;47.188;8.896;2022-10-26T14:51:38;18.30;99.90
30678;DHT22;17437;47.188;8.896;2022-10-26T14:54:19;18.20;99.90
30678;DHT22;17437;47.188;8.896;2022-10-26T14:56:51;18.10;99.90
30678;DHT22;17437;47.188;8.896;2022-10-26T14:59:25;18.10;99.90
30678;DHT22;17437;47.188;8.896;2022-10-26T15:02:00;18.00;99.90
30678;DHT22;17437;47.188;8.896;2022-10-26T15:04:33;18.00;99.90
30678;DHT22;17437;47.188;8.896;2022-10-26T15:07:16;18.00;99.90
30678;DHT22;17437;47.188;8.896;2022-10-26T15:09:48;17.90;99.90
30678;DHT22;17437;47.188;8.896;2022-10-26T15:12:31;17.80;99.90
30678;DHT22;17437;47.188;8.896;2022-10-26T15:15:17;17.80;99.90
30678;DHT22;17437;47.188;8.896;2022-10-26T15:17:51;17.70;99.90
30678;DHT22;17437;47.188;8.896;2022-10-26T15:20:24;17.70;99.90
30678;DHT22;17437;47.188;8.896;2022-10-26T15:22:58;17.60;99.90
30678;DHT22;17437;47.188;8.896;2022-10-26T15:25:32;17.60;99.90
30678;DHT22;17437;47.188;8.896;2022-10-26T15:28:19;17.50;99.90
30678;DHT22;17437;47.188;8.896;2022-10-26T15:31:00;17.50;99.90
30678;DHT22;17437;47.188;8.896;2022-10-26T15:33:33;17.40;99.90
30678;DHT22;17437;47.188;8.896;2022-10-26T15:36:15;17.30;99.90
30678;DHT22;17437;47.188;8.896;2022-10-26T15:38:47;17.20;99.90
30678;DHT22;17437;47.188;8.896;2022-10-26T15:41:22;17.10;99.90
30678;DHT22;17437;47.188;8.896;2022-10-26T15:43:55;17.00;99.90
30678;DHT22;17437;47.188;8.896;2022-10-26T15:46:28;16.80;99.90
30678;DHT22;17437;47.188;8.896;2022-10-26T15:49:02;16.80;99.90
30678;DHT22;17437;47.188;8.896;2022-10-26T15:51:34;16.70;99.90
30678;DHT22;17437;47.188;8.896;2022-10-26T15:54:08;16.60;99.90
30678;DHT22;17437;47.188;8.896;2022-10-26T15:56:40;16.60;99.90
30678;DHT22;17437;47.188;8.896;2022-10-26T15:59:17;16.50;99.90
30678;DHT22;17437;47.188;8.896;2022-10-26T16:01:49;16.40;99.90
30678;DHT22;17437;47.188;8.896;2022-10-26T16:04:22;16.30;99.90
30678;DHT22;17437;47.188;8.896;2022-10-26T16:06:53;16.20;99.90
30678;DHT22;17437;47.188;8.896;2022-10-26T16:09:27;16.20;99.90
30678;DHT22;17437;47.188;8.896;2022-10-26T16:11:58;16.00;99.90
30678;DHT22;17437;47.188;8.896;2022-10-26T16:14:30;15.90;99.90
30678;DHT22;17437;47.188;8.896;2022-10-26T16:17:05;15.80;99.90
30678;DHT22;17437;47.188;8.896;2022-10-26T16:19:37;15.70;99.90
30678;DHT22;17437;47.188;8.896;2022-10-26T16:22:09;15.60;99.90
30678;DHT22;17437;47.188;8.896;2022-10-26T16:24:41;15.50;99.90
30678;DHT22;17437;47.188;8.896;2022-10-26T16:27:13;15.40;99.90
30678;DHT22;17437;47.188;8.896;2022-10-26T16:29:45;15.20;99.90
30678;DHT22;17437;47.188;8.896;2022-10-26T16:32:16;15.10;99.90
30678;DHT22;17437;47.188;8.896;2022-10-26T16:34:48;15.00;99.90
30678;DHT22;17437;47.188;8.896;2022-10-26T16:37:19;14.90;99.90
30678;DHT22;17437;47.188;8.896;2022-10-26T16:39:51;14.80;99.90